sensor_id;sensor_type;location;lat;lon;timestamp;temperature;humidity
39695;DHT22;25367;-35.352;149.036;2022-11-15T00:00:32;21.00;64.10
39695;DHT22;25367;-35.352;149.036;2022-11-15T00:03:22;21.10;64.00
39695;DHT22;25367;-35.352;149.036;2022-11-15T00:06:10;21.10;64.00
39695;DHT22;25367;-35.352;149.036;2022-11-15T00:08:59;21.10;64.00
39695;DHT22;25367;-35.352;149.036;2022-11-15T00:11:49;21.10;63.80
39695;DHT22;25367;-35.352;149.036;2022-11-15T00:14:38;21.10;63.70
39695;DHT22;25367;-35.352;149.036;2022-11-15T00:17:25;21.10;63.60
39695;DHT22;25367;-35.352;149.036;2022-11-15T00:20:12;21.20;63.60
39695;DHT22;25367;-35.352;149.036;2022-11-15T00:22:59;21.20;64.20
39695;DHT22;25367;-35.352;149.036;2022-11-15T00:25:46;21.20;63.50
39695;DHT22;25367;-35.352;149.036;2022-11-15T00:28:37;21.20;63.40
39695;DHT22;25367;-35.352;149.036;2022-11-15T00:31:25;21.20;63.40
39695;DHT22;25367;-35.352;149.036;2022-11-15T00:34:13;21.20;63.20
39695;DHT22;25367;-35.352;149.036;2022-11-15T00:37:01;21.20;63.20
39695;DHT22;25367;-35.352;149.036;2022-11-15T00:39:48;21.30;63.10
39695;DHT22;25367;-35.352;149.036;2022-11-15T00:42:36;21.30;63.10
39695;DHT22;25367;-35.352;149.036;2022-11-15T00:45:26;21.30;63.00
39695;DHT22;25367;-35.352;149.036;2022-11-15T00:48:14;21.30;63.00
39695;DHT22;25367;-35.352;149.036;2022-11-15T00:51:01;21.40;62.90
39695;DHT22;25367;-35.352;149.036;2022-11-15T00:53:49;21.40;62.80
39695;DHT22;25367;-35.352;149.036;2022-11-15T00:56:37;21.40;63.00
39695;DHT22;25367;-35.352;149.036;2022-11-15T00:59:24;21.40;62.80
39695;DHT22;25367;-35.352;149.036;2022-11-15T01:02:14;21.40;62.70
39695;DHT22;25367;-35.352;149.036;2022-11-15T01:05:01;21.50;62.60
39695;DHT22;25367;-35.352;149.036;2022-11-15T01:07:52;21.50;62.60
39695;DHT22;25367;-35.352;149.036;2022-11-15T01:10:40;21.50;62.40
39695;DHT22;25367;-35.352;149.036;2022-11-15T01:13:29;21.50;62.40
39695;DHT22;25367;-35.352;149.036;2022-11-15T01:16:17;21.50;62.40
39695;DHT22;25367;-35.352;149.036;2022-11-15T01:19:08;21.50;62.50
39695;DHT22;25367;-35.352;149.036;2022-11-15T01:21:56;21.60;62.20
39695;DHT22;25367;-35.352;149.036;2022-11-15T01:24:43;21.60;62.30
39695;DHT22;25367;-35.352;149.036;2022-11-15T01:27:31;21.60;62.30
39695;DHT22;25367;-35.352;149.036;2022-11-15T01:30:18;21.60;62.10
39695;DHT22;25367;-35.352;149.036;2022-11-15T01:33:05;21.60;62.10
39695;DHT22;25367;-35.352;149.036;2022-11-15T01:35:56;21.60;62.00
39695;DHT22;25367;-35.352;149.036;2022-11-15T01:38:44;21.70;62.00
39695;DHT22;25367;-35.352;149.036;2022-11-15T01:41:33;21.70;62.00
39695;DHT22;25367;-35.352;149.036;2022-11-15T01:44:43;21.70;61.90
39695;DHT22;25367;-35.352;149.036;2022-11-15T01:47:33;21.70;61.40
39695;DHT22;25367;-35.352;149.036;2022-11-15T01:50:24;21.70;61.70
39695;DHT22;25367;-35.352;149.036;2022-11-15T01:53:17;21.70;61.60
39695;DHT22;25367;-35.352;149.036;2022-11-15T01:56:05;21.70;61.50
39695;DHT22;25367;-35.352;149.036;2022-11-15T01:58:57;21.80;61.60
39695;DHT22;25367;-35.352;149.036;2022-11-15T02:01:45;21.80;61.40
39695;DHT22;25367;-35.352;149.036;2022-11-15T02:04:35;21.80;61.40
39695;DHT22;25367;-35.352;149.036;2022-11-15T02:07:23;21.80;61.30
39695;DHT22;25367;-35.352;149.036;2022-11-15T02:10:19;21.80;61.30
39695;DHT22;25367;-35.352;149.036;2022-11-15T02:13:06;21.80;61.00
39695;DHT22;25367;-35.352;149.036;2022-11-15T02:15:59;21.80;61.20
39695;DHT22;25367;-35.352;149.036;2022-11-15T02:18:55;21.80;61.20
39695;DHT22;25367;-35.352;149.036;2022-11-15T02:21:46;21.80;61.10
39695;DHT22;25367;-35.352;149.036;2022-11-15T02:24:58;21.80;61.00
39695;DHT22;25367;-35.352;149.036;2022-11-15T02:28:20;21.90;60.80
39695;DHT22;25367;-35.352;149.036;2022-11-15T02:31:18;21.90;60.50
39695;DHT22;25367;-35.352;149.036;2022-11-15T02:34:11;21.90;60.70
39695;DHT22;25367;-35.352;149.036;2022-11-15T02:37:07;21.90;60.60
39695;DHT22;25367;-35.352;149.036;2022-11-15T02:40:04;21.90;60.50
39695;DHT22;25367;-35.352;149.036;2022-11-15T02:42:55;21.90;60.40
39695;DHT22;25367;-35.352;149.036;2022-11-15T02:45:47;21.90;60.30
39695;DHT22;25367;-35.352;149.036;2022-11-15T02:48:39;21.90;60.10
39695;DHT22;25367;-35.352;149.036;2022-11-15T02:51:28;21.90;60.10
39695;DHT22;25367;-35.352;149.036;2022-11-15T02:54:20;21.90;60.10
39695;DHT22;25367;-35.352;149.036;2022-11-15T02:57:14;21.90;59.80
39695;DHT22;25367;-35.352;149.036;2022-11-15T03:00:10;21.90;59.70
39695;DHT22;25367;-35.352;149.036;2022-11-15T03:03:11;21.90;59.60
39695;DHT22;25367;-35.352;149.036;2022-11-15T03:06:11;21.90;59.50
39695;DHT22;25367;-35.352;149.036;2022-11-15T03:09:05;21.90;59.60
39695;DHT22;25367;-35.352;149.036;2022-11-15T03:11:59;21.90;59.70
39695;DHT22;25367;-35.352;149.036;2022-11-15T03:14:55;21.90;59.70
39695;DHT22;25367;-35.352;149.036;2022-11-15T03:17:50;21.90;59.50
39695;DHT22;25367;-35.352;149.036;2022-11-15T03:20:40;21.90;59.60
39695;DHT22;25367;-35.352;149.036;2022-11-15T03:23:32;21.90;59.50
39695;DHT22;25367;-35.352;149.036;2022-11-15T03:26:22;21.90;59.40
39695;DHT22;25367;-35.352;149.036;2022-11-15T03:29:13;21.90;59.40
39695;DHT22;25367;-35.352;149.036;2022-11-15T03:32:05;21.90;59.30
39695;DHT22;25367;-35.352;149.036;2022-11-15T03:34:56;22.00;59.50
39695;DHT22;25367;-35.352;149.036;2022-11-15T03:37:48;21.90;59.30
39695;DHT22;25367;-35.352;149.036;2022-11-15T03:40:45;22.00;59.20
39695;DHT22;25367;-35.352;149.036;2022-11-15T03:43:36;21.90;59.10
39695;DHT22;25367;-35.352;149.036;2022-11-15T03:46:31;21.90;59.10
39695;DHT22;25367;-35.352;149.036;2022-11-15T03:49:24;22.00;59.00
39695;DHT22;25367;-35.352;149.036;2022-11-15T03:52:12;21.90;58.80
39695;DHT22;25367;-35.352;149.036;2022-11-15T03:55:06;21.90;58.80
39695;DHT22;25367;-35.352;149.036;2022-11-15T03:57:59;21.90;58.80
39695;DHT22;25367;-35.352;149.036;2022-11-15T04:00:47;22.00;58.60
39695;DHT22;25367;-35.352;149.036;2022-11-15T04:03:34;21.90;58.80
39695;DHT22;25367;-35.352;149.036;2022-11-15T04:06:22;21.90;58.60
39695;DHT22;25367;-35.352;149.036;2022-11-15T04:09:09;21.90;58.70
39695;DHT22;25367;-35.352;149.036;2022-11-15T04:11:57;22.00;58.70
39695;DHT22;25367;-35.352;149.036;2022-11-15T04:14:46;22.00;58.70
39695;DHT22;25367;-35.352;149.036;2022-11-15T04:17:34;22.00;58.70
39695;DHT22;25367;-35.352;149.036;2022-11-15T04:20:23;22.00;58.60
39695;DHT22;25367;-35.352;149.036;2022-11-15T04:23:13;22.00;58.60
39695;DHT22;25367;-35.352;149.036;2022-11-15T04:26:03;22.00;58.60
39695;DHT22;25367;-35.352;149.036;2022-11-15T04:28:51;22.00;58.70
39695;DHT22;25367;-35.352;149.036;2022-11-15T04:31:40;22.10;58.70
39695;DHT22;25367;-35.352;149.036;2022-11-15T04:34:28;22.00;57.40
39695;DHT22;25367;-35.352;149.036;2022-11-15T04:37:15;22.00;57.70
39695;DHT22;25367;-35.352;149.036;2022-11-15T04:40:03;22.00;57.80
39695;DHT22;25367;-35.352;149.036;2022-11-15T04:42:51;22.10;57.90
39695;DHT22;25367;-35.352;149.036;2022-11-15T04:45:38;22.10;57.90
39695;DHT22;25367;-35.352;149.036;2022-11-15T04:48:27;22.10;58.50
39695;DHT22;25367;-35.352;149.036;2022-11-15T04:51:15;22.10;57.90
39695;DHT22;25367;-35.352;149.036;2022-11-15T04:54:03;22.10;57.90
39695;DHT22;25367;-35.352;149.036;2022-11-15T04:56:51;22.10;58.00
39695;DHT22;25367;-35.352;149.036;2022-11-15T04:59:41;22.10;58.00
39695;DHT22;25367;-35.352;149.036;2022-11-15T05:02:28;22.20;58.00
39695;DHT22;25367;-35.352;149.036;2022-11-15T05:05:19;22.20;58.00
39695;DHT22;25367;-35.352;149.036;2022-11-15T05:08:06;22.20;57.90
39695;DHT22;25367;-35.352;149.036;2022-11-15T05:10:53;22.20;57.90
39695;DHT22;25367;-35.352;149.036;2022-11-15T05:13:41;22.20;57.90
39695;DHT22;25367;-35.352;149.036;2022-11-15T05:16:29;22.20;57.80
39695;DHT22;25367;-35.352;149.036;2022-11-15T05:19:17;22.30;57.80
39695;DHT22;25367;-35.352;149.036;2022-11-15T05:22:06;22.20;57.70
39695;DHT22;25367;-35.352;149.036;2022-11-15T05:24:54;22.30;57.70
39695;DHT22;25367;-35.352;149.036;2022-11-15T05:27:41;22.30;57.80
39695;DHT22;25367;-35.352;149.036;2022-11-15T05:30:29;22.30;57.60
39695;DHT22;25367;-35.352;149.036;2022-11-15T05:33:17;22.30;57.60
39695;DHT22;25367;-35.352;149.036;2022-11-15T05:36:07;22.30;57.90
39695;DHT22;25367;-35.352;149.036;2022-11-15T05:38:58;22.30;57.50
39695;DHT22;25367;-35.352;149.036;2022-11-15T05:41:47;22.30;57.40
39695;DHT22;25367;-35.352;149.036;2022-11-15T05:44:37;22.40;57.40
39695;DHT22;25367;-35.352;149.036;2022-11-15T05:47:29;22.40;57.40
39695;DHT22;25367;-35.352;149.036;2022-11-15T05:50:17;22.40;57.30
39695;DHT22;25367;-35.352;149.036;2022-11-15T05:53:06;22.40;57.40
39695;DHT22;25367;-35.352;149.036;2022-11-15T05:55:56;22.40;57.30
39695;DHT22;25367;-35.352;149.036;2022-11-15T05:58:44;22.40;57.20
39695;DHT22;25367;-35.352;149.036;2022-11-15T06:01:32;22.40;57.20
39695;DHT22;25367;-35.352;149.036;2022-11-15T06:04:19;22.40;57.20
39695;DHT22;25367;-35.352;149.036;2022-11-15T06:07:07;22.40;57.10
39695;DHT22;25367;-35.352;149.036;2022-11-15T06:09:54;22.40;57.10
39695;DHT22;25367;-35.352;149.036;2022-11-15T06:12:44;22.50;57.10
39695;DHT22;25367;-35.352;149.036;2022-11-15T06:15:33;22.40;56.90
39695;DHT22;25367;-35.352;149.036;2022-11-15T06:18:20;22.50;56.90
39695;DHT22;25367;-35.352;149.036;2022-11-15T06:21:07;22.40;56.90
39695;DHT22;25367;-35.352;149.036;2022-11-15T06:23:55;22.40;56.70
39695;DHT22;25367;-35.352;149.036;2022-11-15T06:26:43;22.40;56.60
39695;DHT22;25367;-35.352;149.036;2022-11-15T06:29:32;22.40;56.70
39695;DHT22;25367;-35.352;149.036;2022-11-15T06:32:20;22.40;56.50
39695;DHT22;25367;-35.352;149.036;2022-11-15T06:35:08;22.40;56.60
39695;DHT22;25367;-35.352;149.036;2022-11-15T06:37:56;22.40;56.50
39695;DHT22;25367;-35.352;149.036;2022-11-15T06:40:49;22.40;56.60
39695;DHT22;25367;-35.352;149.036;2022-11-15T06:43:37;22.30;56.50
39695;DHT22;25367;-35.352;149.036;2022-11-15T06:49:36;22.30;56.20
39695;DHT22;25367;-35.352;149.036;2022-11-15T06:52:23;22.40;56.40
39695;DHT22;25367;-35.352;149.036;2022-11-15T06:55:11;22.40;56.50
39695;DHT22;25367;-35.352;149.036;2022-11-15T06:57:58;22.30;56.50
39695;DHT22;25367;-35.352;149.036;2022-11-15T07:00:46;22.30;56.40
39695;DHT22;25367;-35.352;149.036;2022-11-15T07:03:34;22.30;56.30
39695;DHT22;25367;-35.352;149.036;2022-11-15T07:06:25;22.30;56.20
39695;DHT22;25367;-35.352;149.036;2022-11-15T07:09:13;22.30;56.10
39695;DHT22;25367;-35.352;149.036;2022-11-15T07:12:00;22.20;56.10
39695;DHT22;25367;-35.352;149.036;2022-11-15T07:14:48;22.30;56.20
39695;DHT22;25367;-35.352;149.036;2022-11-15T07:17:35;22.20;56.10
39695;DHT22;25367;-35.352;149.036;2022-11-15T07:20:22;22.20;56.10
39695;DHT22;25367;-35.352;149.036;2022-11-15T07:23:11;22.20;56.10
39695;DHT22;25367;-35.352;149.036;2022-11-15T07:25:59;22.20;56.10
39695;DHT22;25367;-35.352;149.036;2022-11-15T07:28:46;22.20;56.20
39695;DHT22;25367;-35.352;149.036;2022-11-15T07:31:34;22.10;56.10
39695;DHT22;25367;-35.352;149.036;2022-11-15T07:34:21;22.20;56.20
39695;DHT22;25367;-35.352;149.036;2022-11-15T07:37:08;22.10;56.20
39695;DHT22;25367;-35.352;149.036;2022-11-15T07:39:57;22.10;56.20
39695;DHT22;25367;-35.352;149.036;2022-11-15T07:42:45;22.10;56.20
39695;DHT22;25367;-35.352;149.036;2022-11-15T07:45:33;22.10;56.20
39695;DHT22;25367;-35.352;149.036;2022-11-15T07:48:22;22.10;56.30
39695;DHT22;25367;-35.352;149.036;2022-11-15T07:51:12;22.10;56.30
39695;DHT22;25367;-35.352;149.036;2022-11-15T07:54:00;22.10;56.30
39695;DHT22;25367;-35.352;149.036;2022-11-15T07:56:49;22.10;56.50
39695;DHT22;25367;-35.352;149.036;2022-11-15T07:59:36;22.10;56.50
39695;DHT22;25367;-35.352;149.036;2022-11-15T08:02:23;22.10;56.50
39695;DHT22;25367;-35.352;149.036;2022-11-15T08:05:11;22.10;56.50
39695;DHT22;25367;-35.352;149.036;2022-11-15T08:07:59;22.00;56.40
39695;DHT22;25367;-35.352;149.036;2022-11-15T08:10:46;22.00;56.40
39695;DHT22;25367;-35.352;149.036;2022-11-15T08:13:36;22.00;56.40
39695;DHT22;25367;-35.352;149.036;2022-11-15T08:16:23;22.00;56.30
39695;DHT22;25367;-35.352;149.036;2022-11-15T08:19:10;22.00;56.40
39695;DHT22;25367;-35.352;149.036;2022-11-15T08:21:58;21.90;56.30
39695;DHT22;25367;-35.352;149.036;2022-11-15T08:24:45;21.90;56.30
39695;DHT22;25367;-35.352;149.036;2022-11-15T08:27:33;22.00;56.30
39695;DHT22;25367;-35.352;149.036;2022-11-15T08:30:22;22.00;56.20
39695;DHT22;25367;-35.352;149.036;2022-11-15T08:33:12;21.90;56.20
39695;DHT22;25367;-35.352;149.036;2022-11-15T08:36:00;21.90;56.70
39695;DHT22;25367;-35.352;149.036;2022-11-15T08:38:48;21.90;56.10
39695;DHT22;25367;-35.352;149.036;2022-11-15T08:41:36;21.80;56.10
39695;DHT22;25367;-35.352;149.036;2022-11-15T08:44:24;21.80;56.10
39695;DHT22;25367;-35.352;149.036;2022-11-15T08:47:13;21.80;56.10
39695;DHT22;25367;-35.352;149.036;2022-11-15T08:50:01;21.80;56.00
39695;DHT22;25367;-35.352;149.036;2022-11-15T08:52:49;21.80;56.10
39695;DHT22;25367;-35.352;149.036;2022-11-15T08:55:37;21.70;56.10
39695;DHT22;25367;-35.352;149.036;2022-11-15T08:58:25;21.70;56.00
39695;DHT22;25367;-35.352;149.036;2022-11-15T09:01:17;21.70;56.00
39695;DHT22;25367;-35.352;149.036;2022-11-15T09:04:07;21.70;55.90
39695;DHT22;25367;-35.352;149.036;2022-11-15T09:06:54;21.70;56.00
39695;DHT22;25367;-35.352;149.036;2022-11-15T09:09:41;21.70;56.00
39695;DHT22;25367;-35.352;149.036;2022-11-15T09:12:29;21.60;56.00
39695;DHT22;25367;-35.352;149.036;2022-11-15T09:15:16;21.60;56.00
39695;DHT22;25367;-35.352;149.036;2022-11-15T09:18:04;21.60;56.00
39695;DHT22;25367;-35.352;149.036;2022-11-15T09:20:56;21.60;56.00
39695;DHT22;25367;-35.352;149.036;2022-11-15T09:23:43;21.60;55.80
39695;DHT22;25367;-35.352;149.036;2022-11-15T09:26:31;21.60;56.00
39695;DHT22;25367;-35.352;149.036;2022-11-15T09:29:19;21.60;56.00
39695;DHT22;25367;-35.352;149.036;2022-11-15T09:32:06;21.60;56.10
39695;DHT22;25367;-35.352;149.036;2022-11-15T09:34:54;21.60;56.00
39695;DHT22;25367;-35.352;149.036;2022-11-15T09:37:43;21.60;55.80
39695;DHT22;25367;-35.352;149.036;2022-11-15T09:40:32;21.60;55.70
39695;DHT22;25367;-35.352;149.036;2022-11-15T09:43:38;21.60;55.70
39695;DHT22;25367;-35.352;149.036;2022-11-15T09:46:31;21.70;55.80
39695;DHT22;25367;-35.352;149.036;2022-11-15T09:49:23;21.70;55.90
39695;DHT22;25367;-35.352;149.036;2022-11-15T09:52:28;21.70;56.00
39695;DHT22;25367;-35.352;149.036;2022-11-15T09:55:01;21.70;55.90
39695;DHT22;25367;-35.352;149.036;2022-11-15T09:57:37;21.70;55.80
39695;DHT22;25367;-35.352;149.036;2022-11-15T10:00:11;21.70;55.70
39695;DHT22;25367;-35.352;149.036;2022-11-15T10:02:53;21.70;55.50
39695;DHT22;25367;-35.352;149.036;2022-11-15T10:05:25;21.70;55.60
39695;DHT22;25367;-35.352;149.036;2022-11-15T10:07:59;21.70;55.60
39695;DHT22;25367;-35.352;149.036;2022-11-15T10:10:37;21.70;55.40
39695;DHT22;25367;-35.352;149.036;2022-11-15T10:13:13;21.70;55.70
39695;DHT22;25367;-35.352;149.036;2022-11-15T10:15:46;21.60;55.00
39695;DHT22;25367;-35.352;149.036;2022-11-15T10:18:17;21.60;55.30
39695;DHT22;25367;-35.352;149.036;2022-11-15T10:20:53;21.60;55.30
39695;DHT22;25367;-35.352;149.036;2022-11-15T10:23:24;21.60;55.10
39695;DHT22;25367;-35.352;149.036;2022-11-15T10:25:58;21.50;55.20
39695;DHT22;25367;-35.352;149.036;2022-11-15T10:28:28;21.60;55.40
39695;DHT22;25367;-35.352;149.036;2022-11-15T10:30:59;21.60;55.50
39695;DHT22;25367;-35.352;149.036;2022-11-15T10:33:35;21.60;55.50
39695;DHT22;25367;-35.352;149.036;2022-11-15T10:36:23;21.60;55.50
39695;DHT22;25367;-35.352;149.036;2022-11-15T10:38:57;21.60;55.50
39695;DHT22;25367;-35.352;149.036;2022-11-15T10:41:42;21.60;55.40
39695;DHT22;25367;-35.352;149.036;2022-11-15T10:44:29;21.60;55.50
39695;DHT22;25367;-35.352;149.036;2022-11-15T10:47:23;21.50;55.60
39695;DHT22;25367;-35.352;149.036;2022-11-15T10:49:58;21.60;55.70
39695;DHT22;25367;-35.352;149.036;2022-11-15T10:52:28;21.50;55.50
39695;DHT22;25367;-35.352;149.036;2022-11-15T10:55:02;21.50;55.50
39695;DHT22;25367;-35.352;149.036;2022-11-15T10:57:37;21.50;55.50
39695;DHT22;25367;-35.352;149.036;2022-11-15T11:00:25;21.50;55.50
39695;DHT22;25367;-35.352;149.036;2022-11-15T11:02:59;21.50;55.50
39695;DHT22;25367;-35.352;149.036;2022-11-15T11:05:28;21.50;55.50
39695;DHT22;25367;-35.352;149.036;2022-11-15T11:07:59;21.50;55.80
39695;DHT22;25367;-35.352;149.036;2022-11-15T11:10:30;21.40;55.70
39695;DHT22;25367;-35.352;149.036;2022-11-15T11:13:13;21.40;55.60
39695;DHT22;25367;-35.352;149.036;2022-11-15T11:15:46;21.40;55.70
39695;DHT22;25367;-35.352;149.036;2022-11-15T11:18:18;21.30;55.40
39695;DHT22;25367;-35.352;149.036;2022-11-15T11:20:57;21.30;55.60
39695;DHT22;25367;-35.352;149.036;2022-11-15T11:23:44;21.30;55.40
39695;DHT22;25367;-35.352;149.036;2022-11-15T11:26:38;21.30;55.40
39695;DHT22;25367;-35.352;149.036;2022-11-15T11:29:22;21.30;55.30
39695;DHT22;25367;-35.352;149.036;2022-11-15T11:32:02;21.20;55.20
39695;DHT22;25367;-35.352;149.036;2022-11-15T11:34:44;21.30;55.20
39695;DHT22;25367;-35.352;149.036;2022-11-15T11:37:32;21.20;55.20
39695;DHT22;25367;-35.352;149.036;2022-11-15T11:40:12;21.20;55.20
39695;DHT22;25367;-35.352;149.036;2022-11-15T11:42:49;21.10;55.10
39695;DHT22;25367;-35.352;149.036;2022-11-15T11:45:31;21.10;55.10
39695;DHT22;25367;-35.352;149.036;2022-11-15T11:48:12;21.10;55.10
39695;DHT22;25367;-35.352;149.036;2022-11-15T11:50:43;21.10;55.00
39695;DHT22;25367;-35.352;149.036;2022-11-15T11:53:25;21.10;55.10
39695;DHT22;25367;-35.352;149.036;2022-11-15T11:55:59;21.10;55.10
39695;DHT22;25367;-35.352;149.036;2022-11-15T11:58:35;21.00;55.10
39695;DHT22;25367;-35.352;149.036;2022-11-15T12:01:16;21.00;55.10
39695;DHT22;25367;-35.352;149.036;2022-11-15T12:03:51;21.00;55.00
39695;DHT22;25367;-35.352;149.036;2022-11-15T12:06:27;21.00;55.10
39695;DHT22;25367;-35.352;149.036;2022-11-15T12:09:03;20.90;55.00
39695;DHT22;25367;-35.352;149.036;2022-11-15T12:11:42;20.90;55.00
39695;DHT22;25367;-35.352;149.036;2022-11-15T12:14:21;20.90;55.00
39695;DHT22;25367;-35.352;149.036;2022-11-15T12:16:54;20.90;55.00
39695;DHT22;25367;-35.352;149.036;2022-11-15T12:19:23;20.80;55.00
39695;DHT22;25367;-35.352;149.036;2022-11-15T12:21:56;20.90;55.10
39695;DHT22;25367;-35.352;149.036;2022-11-15T12:24:32;20.80;55.00
39695;DHT22;25367;-35.352;149.036;2022-11-15T12:27:05;20.80;55.10
39695;DHT22;25367;-35.352;149.036;2022-11-15T12:29:41;20.80;55.10
39695;DHT22;25367;-35.352;149.036;2022-11-15T12:32:22;20.70;55.00
39695;DHT22;25367;-35.352;149.036;2022-11-15T12:34:54;20.70;55.00
39695;DHT22;25367;-35.352;149.036;2022-11-15T12:37:53;20.70;55.10
39695;DHT22;25367;-35.352;149.036;2022-11-15T12:40:27;20.70;55.10
39695;DHT22;25367;-35.352;149.036;2022-11-15T12:45:54;20.60;55.10
39695;DHT22;25367;-35.352;149.036;2022-11-15T12:48:56;20.60;55.10
39695;DHT22;25367;-35.352;149.036;2022-11-15T12:54:51;20.60;55.20
39695;DHT22;25367;-35.352;149.036;2022-11-15T12:57:43;20.50;55.10
39695;DHT22;25367;-35.352;149.036;2022-11-15T13:00:44;20.50;55.20
39695;DHT22;25367;-35.352;149.036;2022-11-15T13:03:28;20.50;55.20
39695;DHT22;25367;-35.352;149.036;2022-11-15T13:06:08;20.50;55.20
39695;DHT22;25367;-35.352;149.036;2022-11-15T13:08:47;20.40;55.20
39695;DHT22;25367;-35.352;149.036;2022-11-15T13:11:47;20.40;55.20
39695;DHT22;25367;-35.352;149.036;2022-11-15T13:14:48;20.40;55.20
39695;DHT22;25367;-35.352;149.036;2022-11-15T13:17:33;20.40;55.20
39695;DHT22;25367;-35.352;149.036;2022-11-15T13:20:18;20.30;55.20
39695;DHT22;25367;-35.352;149.036;2022-11-15T13:22:51;20.30;55.20
39695;DHT22;25367;-35.352;149.036;2022-11-15T13:28:18;20.30;55.20
39695;DHT22;25367;-35.352;149.036;2022-11-15T13:30:53;20.20;55.20
39695;DHT22;25367;-35.352;149.036;2022-11-15T13:33:24;20.20;55.10
39695;DHT22;25367;-35.352;149.036;2022-11-15T13:35:57;20.20;55.20
39695;DHT22;25367;-35.352;149.036;2022-11-15T13:38:31;20.20;55.20
39695;DHT22;25367;-35.352;149.036;2022-11-15T13:41:11;20.20;55.20
39695;DHT22;25367;-35.352;149.036;2022-11-15T13:43:41;20.10;55.20
39695;DHT22;25367;-35.352;149.036;2022-11-15T13:46:15;20.20;55.30
39695;DHT22;25367;-35.352;149.036;2022-11-15T13:48:45;20.10;55.20
39695;DHT22;25367;-35.352;149.036;2022-11-15T13:51:19;20.10;55.20
39695;DHT22;25367;-35.352;149.036;2022-11-15T13:53:54;20.10;55.20
39695;DHT22;25367;-35.352;149.036;2022-11-15T13:56:24;20.10;55.20
39695;DHT22;25367;-35.352;149.036;2022-11-15T13:58:55;20.00;55.20
39695;DHT22;25367;-35.352;149.036;2022-11-15T14:01:27;20.00;55.30
39695;DHT22;25367;-35.352;149.036;2022-11-15T14:03:59;20.00;55.20
39695;DHT22;25367;-35.352;149.036;2022-11-15T14:06:29;20.00;55.30
39695;DHT22;25367;-35.352;149.036;2022-11-15T14:09:04;20.00;55.30
39695;DHT22;25367;-35.352;149.036;2022-11-15T14:11:51;19.90;55.20
39695;DHT22;25367;-35.352;149.036;2022-11-15T14:14:22;20.00;55.30
39695;DHT22;25367;-35.352;149.036;2022-11-15T14:16:53;19.90;55.30
39695;DHT22;25367;-35.352;149.036;2022-11-15T14:19:39;19.90;55.30
39695;DHT22;25367;-35.352;149.036;2022-11-15T14:22:13;19.80;55.20
39695;DHT22;25367;-35.352;149.036;2022-11-15T14:24:46;19.80;55.30
39695;DHT22;25367;-35.352;149.036;2022-11-15T14:27:24;19.80;55.30
39695;DHT22;25367;-35.352;149.036;2022-11-15T14:29:54;19.80;55.30
39695;DHT22;25367;-35.352;149.036;2022-11-15T14:32:24;19.80;55.40
39695;DHT22;25367;-35.352;149.036;2022-11-15T14:34:56;19.80;55.40
39695;DHT22;25367;-35.352;149.036;2022-11-15T14:37:28;19.70;55.30
39695;DHT22;25367;-35.352;149.036;2022-11-15T14:40:00;19.70;55.40
39695;DHT22;25367;-35.352;149.036;2022-11-15T14:42:29;19.70;55.40
39695;DHT22;25367;-35.352;149.036;2022-11-15T14:44:59;19.70;55.40
39695;DHT22;25367;-35.352;149.036;2022-11-15T14:47:28;19.70;55.40
39695;DHT22;25367;-35.352;149.036;2022-11-15T14:49:57;19.60;55.40
39695;DHT22;25367;-35.352;149.036;2022-11-15T14:52:28;19.60;55.40
39695;DHT22;25367;-35.352;149.036;2022-11-15T14:55:01;19.60;55.40
39695;DHT22;25367;-35.352;149.036;2022-11-15T14:57:30;19.60;55.40
39695;DHT22;25367;-35.352;149.036;2022-11-15T15:00:00;19.60;55.40
39695;DHT22;25367;-35.352;149.036;2022-11-15T15:02:42;19.60;55.40
39695;DHT22;25367;-35.352;149.036;2022-11-15T15:05:16;19.60;55.50
39695;DHT22;25367;-35.352;149.036;2022-11-15T15:07:46;19.50;55.40
39695;DHT22;25367;-35.352;149.036;2022-11-15T15:10:18;19.50;55.40
39695;DHT22;25367;-35.352;149.036;2022-11-15T15:12:48;19.50;55.40
39695;DHT22;25367;-35.352;149.036;2022-11-15T15:15:20;19.50;55.50
39695;DHT22;25367;-35.352;149.036;2022-11-15T15:17:50;19.50;55.50
39695;DHT22;25367;-35.352;149.036;2022-11-15T15:20:20;19.40;55.40
39695;DHT22;25367;-35.352;149.036;2022-11-15T15:22:49;19.40;55.50
39695;DHT22;25367;-35.352;149.036;2022-11-15T15:25:30;19.40;55.50
39695;DHT22;25367;-35.352;149.036;2022-11-15T15:28:00;19.40;55.40
39695;DHT22;25367;-35.352;149.036;2022-11-15T15:30:31;19.40;55.50
39695;DHT22;25367;-35.352;149.036;2022-11-15T15:33:00;19.40;55.60
39695;DHT22;25367;-35.352;149.036;2022-11-15T15:35:31;19.30;55.50
39695;DHT22;25367;-35.352;149.036;2022-11-15T15:38:02;19.30;55.50
39695;DHT22;25367;-35.352;149.036;2022-11-15T15:40:34;19.30;55.60
39695;DHT22;25367;-35.352;149.036;2022-11-15T15:43:03;19.30;55.50
39695;DHT22;25367;-35.352;149.036;2022-11-15T15:45:33;19.20;55.50
39695;DHT22;25367;-35.352;149.036;2022-11-15T15:48:03;19.20;55.50
39695;DHT22;25367;-35.352;149.036;2022-11-15T15:50:34;19.20;55.60
39695;DHT22;25367;-35.352;149.036;2022-11-15T15:53:04;19.20;55.50
39695;DHT22;25367;-35.352;149.036;2022-11-15T15:55:36;19.20;55.60
39695;DHT22;25367;-35.352;149.036;2022-11-15T15:58:06;19.20;55.60
39695;DHT22;25367;-35.352;149.036;2022-11-15T16:00:36;19.10;55.50
39695;DHT22;25367;-35.352;149.036;2022-11-15T16:03:05;19.10;55.60
39695;DHT22;25367;-35.352;149.036;2022-11-15T16:05:35;19.10;55.60
39695;DHT22;25367;-35.352;149.036;2022-11-15T16:08:04;19.10;55.60
39695;DHT22;25367;-35.352;149.036;2022-11-15T16:10:36;19.10;55.60
39695;DHT22;25367;-35.352;149.036;2022-11-15T16:13:05;19.00;55.60
39695;DHT22;25367;-35.352;149.036;2022-11-15T16:15:34;19.00;55.60
39695;DHT22;25367;-35.352;149.036;2022-11-15T16:18:05;19.00;55.60
39695;DHT22;25367;-35.352;149.036;2022-11-15T16:20:36;19.00;55.60
39695;DHT22;25367;-35.352;149.036;2022-11-15T16:23:09;19.00;55.70
39695;DHT22;25367;-35.352;149.036;2022-11-15T16:25:44;19.00;55.70
39695;DHT22;25367;-35.352;149.036;2022-11-15T16:28:21;18.90;55.60
39695;DHT22;25367;-35.352;149.036;2022-11-15T16:30:59;18.90;55.60
39695;DHT22;25367;-35.352;149.036;2022-11-15T16:33:28;18.90;55.70
39695;DHT22;25367;-35.352;149.036;2022-11-15T16:35:58;18.90;55.70
39695;DHT22;25367;-35.352;149.036;2022-11-15T16:38:27;18.90;55.80